sensor_id;sensor_type;location;lat;lon;timestamp;temperature;humidity
65036;DHT22;51603;49.300;8.880;2023-04-01T00:00:53;9.60;99.90
65036;DHT22;51603;49.300;8.880;2023-04-01T00:03:20;9.60;99.90
65036;DHT22;51603;49.300;8.880;2023-04-01T00:05:46;9.60;99.90
65036;DHT22;51603;49.300;8.880;2023-04-01T00:08:12;9.60;99.90
65036;DHT22;51603;49.300;8.880;2023-04-01T00:10:38;9.60;99.90
65036;DHT22;51603;49.300;8.880;2023-04-01T00:13:04;9.50;99.90
65036;DHT22;51603;49.300;8.880;2023-04-01T00:15:30;9.50;99.90
65036;DHT22;51603;49.300;8.880;2023-04-01T00:17:56;9.50;99.90
65036;DHT22;51603;49.300;8.880;2023-04-01T00:20:21;9.50;99.90
65036;DHT22;51603;49.300;8.880;2023-04-01T00:22:47;9.50;99.90
65036;DHT22;51603;49.300;8.880;2023-04-01T00:25:13;9.50;99.90
65036;DHT22;51603;49.300;8.880;2023-04-01T00:27:40;9.50;99.90
65036;DHT22;51603;49.300;8.880;2023-04-01T00:30:06;9.40;99.90
65036;DHT22;51603;49.300;8.880;2023-04-01T00:32:32;9.40;99.90
65036;DHT22;51603;49.300;8.880;2023-04-01T00:34:58;9.40;99.90
65036;DHT22;51603;49.300;8.880;2023-04-01T00:37:25;9.40;99.90
65036;DHT22;51603;49.300;8.880;2023-04-01T00:39:51;9.50;99.90
65036;DHT22;51603;49.300;8.880;2023-04-01T00:42:17;9.30;99.90
65036;DHT22;51603;49.300;8.880;2023-04-01T00:44:45;9.30;99.90
65036;DHT22;51603;49.300;8.880;2023-04-01T00:47:11;9.30;99.90
65036;DHT22;51603;49.300;8.880;2023-04-01T00:49:39;9.30;99.90
65036;DHT22;51603;49.300;8.880;2023-04-01T00:52:07;9.40;99.90
65036;DHT22;51603;49.300;8.880;2023-04-01T00:54:34;9.40;99.90
65036;DHT22;51603;49.300;8.880;2023-04-01T00:57:12;9.40;99.90
65036;DHT22;51603;49.300;8.880;2023-04-01T00:59:45;9.40;99.90
65036;DHT22;51603;49.300;8.880;2023-04-01T01:02:14;9.40;99.90
65036;DHT22;51603;49.300;8.880;2023-04-01T01:04:40;9.40;99.90
65036;DHT22;51603;49.300;8.880;2023-04-01T01:15:20;9.50;99.90
65036;DHT22;51603;49.300;8.880;2023-04-01T01:26:40;9.50;99.90
65036;DHT22;51603;49.300;8.880;2023-04-01T01:31:59;9.40;99.90
65036;DHT22;51603;49.300;8.880;2023-04-01T01:37:23;9.50;99.90
65036;DHT22;51603;49.300;8.880;2023-04-01T01:39:55;9.50;99.90
65036;DHT22;51603;49.300;8.880;2023-04-01T01:42:23;9.40;99.90
65036;DHT22;51603;49.300;8.880;2023-04-01T01:44:50;9.40;99.90
65036;DHT22;51603;49.300;8.880;2023-04-01T01:47:18;9.40;99.90
65036;DHT22;51603;49.300;8.880;2023-04-01T01:49:45;9.40;99.90
65036;DHT22;51603;49.300;8.880;2023-04-01T01:52:12;9.40;99.90
65036;DHT22;51603;49.300;8.880;2023-04-01T01:54:53;9.40;99.90
65036;DHT22;51603;49.300;8.880;2023-04-01T01:57:23;9.40;99.90
65036;DHT22;51603;49.300;8.880;2023-04-01T01:59:52;9.40;99.90
65036;DHT22;51603;49.300;8.880;2023-04-01T02:02:21;9.40;99.90
65036;DHT22;51603;49.300;8.880;2023-04-01T02:04:48;9.50;99.90
65036;DHT22;51603;49.300;8.880;2023-04-01T02:07:20;9.50;99.90
65036;DHT22;51603;49.300;8.880;2023-04-01T02:09:46;9.50;99.90
65036;DHT22;51603;49.300;8.880;2023-04-01T02:12:14;9.50;99.90
65036;DHT22;51603;49.300;8.880;2023-04-01T02:14:45;9.50;99.90
65036;DHT22;51603;49.300;8.880;2023-04-01T02:17:16;9.60;99.90
65036;DHT22;51603;49.300;8.880;2023-04-01T02:19:57;9.60;99.90
65036;DHT22;51603;49.300;8.880;2023-04-01T02:22:27;9.60;99.90
65036;DHT22;51603;49.300;8.880;2023-04-01T02:24:56;9.60;99.90
65036;DHT22;51603;49.300;8.880;2023-04-01T02:27:23;9.50;99.90
65036;DHT22;51603;49.300;8.880;2023-04-01T02:29:50;9.50;99.90
65036;DHT22;51603;49.300;8.880;2023-04-01T02:32:17;9.50;99.90
65036;DHT22;51603;49.300;8.880;2023-04-01T02:34:44;9.50;99.90
65036;DHT22;51603;49.300;8.880;2023-04-01T02:37:11;9.40;99.90
65036;DHT22;51603;49.300;8.880;2023-04-01T02:39:37;9.40;99.90
65036;DHT22;51603;49.300;8.880;2023-04-01T02:42:03;9.40;99.90
65036;DHT22;51603;49.300;8.880;2023-04-01T02:44:28;9.40;99.90
65036;DHT22;51603;49.300;8.880;2023-04-01T02:46:54;9.40;99.90
65036;DHT22;51603;49.300;8.880;2023-04-01T02:49:20;9.30;99.90
65036;DHT22;51603;49.300;8.880;2023-04-01T02:51:45;9.30;99.90
65036;DHT22;51603;49.300;8.880;2023-04-01T02:54:11;9.30;99.90
65036;DHT22;51603;49.300;8.880;2023-04-01T02:56:36;9.30;99.90
65036;DHT22;51603;49.300;8.880;2023-04-01T02:59:02;9.30;99.90
65036;DHT22;51603;49.300;8.880;2023-04-01T03:01:27;9.30;99.90
65036;DHT22;51603;49.300;8.880;2023-04-01T03:03:53;9.30;99.90
65036;DHT22;51603;49.300;8.880;2023-04-01T03:06:19;9.30;99.90
65036;DHT22;51603;49.300;8.880;2023-04-01T03:08:44;9.30;99.90
65036;DHT22;51603;49.300;8.880;2023-04-01T03:11:10;9.20;99.90
65036;DHT22;51603;49.300;8.880;2023-04-01T03:13:36;9.20;99.90
65036;DHT22;51603;49.300;8.880;2023-04-01T03:16:02;9.20;99.90
65036;DHT22;51603;49.300;8.880;2023-04-01T03:18:28;9.30;99.90
65036;DHT22;51603;49.300;8.880;2023-04-01T03:20:54;9.30;99.90
65036;DHT22;51603;49.300;8.880;2023-04-01T03:23:19;9.30;99.90
65036;DHT22;51603;49.300;8.880;2023-04-01T03:25:46;9.30;99.90
65036;DHT22;51603;49.300;8.880;2023-04-01T03:28:12;9.20;99.90
65036;DHT22;51603;49.300;8.880;2023-04-01T03:30:38;9.20;99.90
65036;DHT22;51603;49.300;8.880;2023-04-01T03:33:04;9.30;99.90
65036;DHT22;51603;49.300;8.880;2023-04-01T03:35:30;9.30;99.90
65036;DHT22;51603;49.300;8.880;2023-04-01T03:37:55;9.30;99.90
65036;DHT22;51603;49.300;8.880;2023-04-01T03:40:22;9.30;99.90
65036;DHT22;51603;49.300;8.880;2023-04-01T03:42:47;9.30;99.90
65036;DHT22;51603;49.300;8.880;2023-04-01T03:45:13;9.20;99.90
65036;DHT22;51603;49.300;8.880;2023-04-01T03:47:39;9.30;99.90
65036;DHT22;51603;49.300;8.880;2023-04-01T03:50:06;9.30;99.90
65036;DHT22;51603;49.300;8.880;2023-04-01T03:52:32;9.30;99.90
65036;DHT22;51603;49.300;8.880;2023-04-01T03:54:58;9.20;99.90
65036;DHT22;51603;49.300;8.880;2023-04-01T03:57:24;9.20;99.90
65036;DHT22;51603;49.300;8.880;2023-04-01T03:59:50;9.30;99.90
65036;DHT22;51603;49.300;8.880;2023-04-01T04:02:16;9.20;99.90
65036;DHT22;51603;49.300;8.880;2023-04-01T04:04:41;9.20;99.90
65036;DHT22;51603;49.300;8.880;2023-04-01T04:07:07;9.20;99.90
65036;DHT22;51603;49.300;8.880;2023-04-01T04:09:33;9.20;99.90
65036;DHT22;51603;49.300;8.880;2023-04-01T04:12:00;9.10;99.90
65036;DHT22;51603;49.300;8.880;2023-04-01T04:14:25;9.10;99.90
65036;DHT22;51603;49.300;8.880;2023-04-01T04:16:51;9.10;99.90
65036;DHT22;51603;49.300;8.880;2023-04-01T04:19:17;9.00;99.90
65036;DHT22;51603;49.300;8.880;2023-04-01T04:21:43;9.00;99.90
65036;DHT22;51603;49.300;8.880;2023-04-01T04:24:08;9.00;99.90
65036;DHT22;51603;49.300;8.880;2023-04-01T04:26:34;8.90;99.90
65036;DHT22;51603;49.300;8.880;2023-04-01T04:29:00;8.90;99.90
65036;DHT22;51603;49.300;8.880;2023-04-01T04:31:26;8.80;99.90
65036;DHT22;51603;49.300;8.880;2023-04-01T04:33:52;8.80;99.90
65036;DHT22;51603;49.300;8.880;2023-04-01T04:36:19;8.70;99.90
65036;DHT22;51603;49.300;8.880;2023-04-01T04:38:45;8.70;99.90
65036;DHT22;51603;49.300;8.880;2023-04-01T04:41:15;8.60;99.90
65036;DHT22;51603;49.300;8.880;2023-04-01T04:43:55;8.70;99.90
65036;DHT22;51603;49.300;8.880;2023-04-01T04:46:22;8.60;99.90
65036;DHT22;51603;49.300;8.880;2023-04-01T04:48:47;8.60;99.90
65036;DHT22;51603;49.300;8.880;2023-04-01T04:51:17;8.60;99.90
65036;DHT22;51603;49.300;8.880;2023-04-01T04:53:44;8.60;99.90
65036;DHT22;51603;49.300;8.880;2023-04-01T04:56:10;8.60;99.90
65036;DHT22;51603;49.300;8.880;2023-04-01T04:58:36;8.70;99.90
65036;DHT22;51603;49.300;8.880;2023-04-01T05:01:09;8.60;99.90
65036;DHT22;51603;49.300;8.880;2023-04-01T05:03:36;8.70;99.90
65036;DHT22;51603;49.300;8.880;2023-04-01T05:06:02;8.80;99.90
65036;DHT22;51603;49.300;8.880;2023-04-01T05:08:27;8.90;99.90
65036;DHT22;51603;49.300;8.880;2023-04-01T05:10:53;8.90;99.90
65036;DHT22;51603;49.300;8.880;2023-04-01T05:13:19;8.90;99.90
65036;DHT22;51603;49.300;8.880;2023-04-01T05:15:45;9.00;99.90
65036;DHT22;51603;49.300;8.880;2023-04-01T05:18:10;9.10;99.90
65036;DHT22;51603;49.300;8.880;2023-04-01T05:20:36;9.10;99.90
65036;DHT22;51603;49.300;8.880;2023-04-01T05:23:01;9.20;99.90
65036;DHT22;51603;49.300;8.880;2023-04-01T05:25:27;9.20;99.90
65036;DHT22;51603;49.300;8.880;2023-04-01T05:27:53;9.30;99.90
65036;DHT22;51603;49.300;8.880;2023-04-01T05:30:19;9.30;99.90
65036;DHT22;51603;49.300;8.880;2023-04-01T05:32:45;9.30;99.90
65036;DHT22;51603;49.300;8.880;2023-04-01T05:35:10;9.30;99.90
65036;DHT22;51603;49.300;8.880;2023-04-01T05:37:36;9.40;99.90
65036;DHT22;51603;49.300;8.880;2023-04-01T05:40:03;9.40;99.90
65036;DHT22;51603;49.300;8.880;2023-04-01T05:42:28;9.40;99.90
65036;DHT22;51603;49.300;8.880;2023-04-01T05:44:54;9.40;99.90
65036;DHT22;51603;49.300;8.880;2023-04-01T05:47:21;9.40;99.90
65036;DHT22;51603;49.300;8.880;2023-04-01T05:49:47;9.40;99.90
65036;DHT22;51603;49.300;8.880;2023-04-01T05:52:12;9.40;99.90
65036;DHT22;51603;49.300;8.880;2023-04-01T05:54:38;9.50;99.90
65036;DHT22;51603;49.300;8.880;2023-04-01T05:57:03;9.40;99.90
65036;DHT22;51603;49.300;8.880;2023-04-01T05:59:29;9.40;99.90
65036;DHT22;51603;49.300;8.880;2023-04-01T06:01:57;9.40;99.90
65036;DHT22;51603;49.300;8.880;2023-04-01T06:04:23;9.50;99.90
65036;DHT22;51603;49.300;8.880;2023-04-01T06:06:49;9.50;99.90
65036;DHT22;51603;49.300;8.880;2023-04-01T06:09:35;9.40;99.90
65036;DHT22;51603;49.300;8.880;2023-04-01T06:23:10;9.40;99.90
65036;DHT22;51603;49.300;8.880;2023-04-01T06:34:17;9.30;99.90
65036;DHT22;51603;49.300;8.880;2023-04-01T06:37:03;9.30;99.90
65036;DHT22;51603;49.300;8.880;2023-04-01T06:39:42;9.20;99.90
65036;DHT22;51603;49.300;8.880;2023-04-01T06:53:17;9.00;99.90
65036;DHT22;51603;49.300;8.880;2023-04-01T06:55:55;8.90;99.90
65036;DHT22;51603;49.300;8.880;2023-04-01T06:58:37;8.80;99.90
65036;DHT22;51603;49.300;8.880;2023-04-01T07:01:08;8.90;99.90
65036;DHT22;51603;49.300;8.880;2023-04-01T07:03:55;8.90;99.90
65036;DHT22;51603;49.300;8.880;2023-04-01T07:06:36;8.70;99.90
65036;DHT22;51603;49.300;8.880;2023-04-01T07:09:09;8.80;99.90
65036;DHT22;51603;49.300;8.880;2023-04-01T07:11:37;8.80;99.90
65036;DHT22;51603;49.300;8.880;2023-04-01T07:14:15;8.70;99.90
65036;DHT22;51603;49.300;8.880;2023-04-01T07:16:51;8.80;99.90
65036;DHT22;51603;49.300;8.880;2023-04-01T07:19:34;8.70;99.90
65036;DHT22;51603;49.300;8.880;2023-04-01T07:22:38;8.70;99.90
65036;DHT22;51603;49.300;8.880;2023-04-01T07:25:20;8.80;99.90
65036;DHT22;51603;49.300;8.880;2023-04-01T07:27:46;8.70;99.90
65036;DHT22;51603;49.300;8.880;2023-04-01T07:30:18;8.80;99.90
65036;DHT22;51603;49.300;8.880;2023-04-01T07:32:59;8.80;99.90
65036;DHT22;51603;49.300;8.880;2023-04-01T07:35:54;8.80;99.90
65036;DHT22;51603;49.300;8.880;2023-04-01T07:52:47;8.80;99.90
65036;DHT22;51603;49.300;8.880;2023-04-01T07:58:09;8.70;99.90
65036;DHT22;51603;49.300;8.880;2023-04-01T08:00:50;8.70;99.90
65036;DHT22;51603;49.300;8.880;2023-04-01T08:12:16;8.70;99.90
65036;DHT22;51603;49.300;8.880;2023-04-01T08:20:29;8.80;99.90
65036;DHT22;51603;49.300;8.880;2023-04-01T08:23:03;8.80;99.90
65036;DHT22;51603;49.300;8.880;2023-04-01T08:25:34;8.80;99.90
65036;DHT22;51603;49.300;8.880;2023-04-01T08:28:11;8.70;99.90
65036;DHT22;51603;49.300;8.880;2023-04-01T08:30:43;8.70;99.90
65036;DHT22;51603;49.300;8.880;2023-04-01T08:33:16;8.70;99.90
65036;DHT22;51603;49.300;8.880;2023-04-01T08:38:36;8.70;99.90
65036;DHT22;51603;49.300;8.880;2023-04-01T08:47:18;8.80;99.90
65036;DHT22;51603;49.300;8.880;2023-04-01T08:52:52;8.80;99.90
65036;DHT22;51603;49.300;8.880;2023-04-01T09:07:33;8.80;99.90
65036;DHT22;51603;49.300;8.880;2023-04-01T09:16:08;8.80;99.90
65036;DHT22;51603;49.300;8.880;2023-04-01T09:34:55;8.90;99.90
65036;DHT22;51603;49.300;8.880;2023-04-01T09:40:15;9.00;99.90
65036;DHT22;51603;49.300;8.880;2023-04-01T09:43:06;9.00;99.90
65036;DHT22;51603;49.300;8.880;2023-04-01T09:46:09;9.10;99.90
65036;DHT22;51603;49.300;8.880;2023-04-01T09:57:33;9.20;99.90
65036;DHT22;51603;49.300;8.880;2023-04-01T10:20:06;9.10;99.90
65036;DHT22;51603;49.300;8.880;2023-04-01T10:23:24;9.10;99.90
65036;DHT22;51603;49.300;8.880;2023-04-01T10:31:42;9.10;99.90
65036;DHT22;51603;49.300;8.880;2023-04-01T10:53:36;9.50;99.90
65036;DHT22;51603;49.300;8.880;2023-04-01T10:59:52;9.40;99.90
65036;DHT22;51603;49.300;8.880;2023-04-01T11:05:15;9.40;99.90
65036;DHT22;51603;49.300;8.880;2023-04-01T11:16:54;9.60;99.90
65036;DHT22;51603;49.300;8.880;2023-04-01T11:19:46;9.50;99.90
65036;DHT22;51603;49.300;8.880;2023-04-01T11:30:26;9.50;99.90
65036;DHT22;51603;49.300;8.880;2023-04-01T11:33:04;9.50;99.90
65036;DHT22;51603;49.300;8.880;2023-04-01T11:35:59;9.50;99.90
65036;DHT22;51603;49.300;8.880;2023-04-01T11:41:06;9.50;99.90
65036;DHT22;51603;49.300;8.880;2023-04-01T11:46:19;9.50;99.90
65036;DHT22;51603;49.300;8.880;2023-04-01T11:49:00;9.50;99.90
65036;DHT22;51603;49.300;8.880;2023-04-01T11:51:53;9.50;99.90
65036;DHT22;51603;49.300;8.880;2023-04-01T12:08:28;9.40;99.90
65036;DHT22;51603;49.300;8.880;2023-04-01T12:11:03;9.40;99.90
65036;DHT22;51603;49.300;8.880;2023-04-01T12:13:44;9.40;99.90
65036;DHT22;51603;49.300;8.880;2023-04-01T12:19:27;9.50;99.90
65036;DHT22;51603;49.300;8.880;2023-04-01T12:24:52;9.40;99.90
65036;DHT22;51603;49.300;8.880;2023-04-01T12:30:10;9.50;99.90
65036;DHT22;51603;49.300;8.880;2023-04-01T12:35:42;9.50;99.90
65036;DHT22;51603;49.300;8.880;2023-04-01T12:38:41;9.50;99.90
65036;DHT22;51603;49.300;8.880;2023-04-01T12:44:12;9.40;99.90
65036;DHT22;51603;49.300;8.880;2023-04-01T12:55:45;9.60;99.90
65036;DHT22;51603;49.300;8.880;2023-04-01T13:04:26;9.60;99.90
65036;DHT22;51603;49.300;8.880;2023-04-01T13:10:00;9.60;99.90
65036;DHT22;51603;49.300;8.880;2023-04-01T13:21:43;9.60;99.90
65036;DHT22;51603;49.300;8.880;2023-04-01T13:24:03;9.60;99.90
65036;DHT22;51603;49.300;8.880;2023-04-01T13:27:02;9.60;99.90
65036;DHT22;51603;49.300;8.880;2023-04-01T13:29:38;9.70;99.90
65036;DHT22;51603;49.300;8.880;2023-04-01T13:32:35;9.70;99.90
65036;DHT22;51603;49.300;8.880;2023-04-01T13:35:18;9.70;99.90
65036;DHT22;51603;49.300;8.880;2023-04-01T13:37:52;9.70;99.90
65036;DHT22;51603;49.300;8.880;2023-04-01T13:43:10;9.80;99.90
65036;DHT22;51603;49.300;8.880;2023-04-01T13:48:34;9.90;99.90
65036;DHT22;51603;49.300;8.880;2023-04-01T13:51:13;9.80;99.90
65036;DHT22;51603;49.300;8.880;2023-04-01T13:54:00;9.80;99.90
65036;DHT22;51603;49.300;8.880;2023-04-01T13:56:49;9.80;99.90
65036;DHT22;51603;49.300;8.880;2023-04-01T14:10:13;9.80;99.90
65036;DHT22;51603;49.300;8.880;2023-04-01T14:15:36;9.70;99.90
65036;DHT22;51603;49.300;8.880;2023-04-01T14:32:16;9.80;99.90
65036;DHT22;51603;49.300;8.880;2023-04-01T14:38:12;9.80;99.90
65036;DHT22;51603;49.300;8.880;2023-04-01T14:43:28;9.80;99.90
65036;DHT22;51603;49.300;8.880;2023-04-01T14:46:50;9.80;99.90
65036;DHT22;51603;49.300;8.880;2023-04-01T14:49:24;9.80;99.90
65036;DHT22;51603;49.300;8.880;2023-04-01T14:51:56;9.80;99.90
65036;DHT22;51603;49.300;8.880;2023-04-01T14:54:36;9.80;99.90
65036;DHT22;51603;49.300;8.880;2023-04-01T14:57:29;9.80;99.90
65036;DHT22;51603;49.300;8.880;2023-04-01T15:00:16;9.70;99.90
65036;DHT22;51603;49.300;8.880;2023-04-01T15:05:27;9.70;99.90
65036;DHT22;51603;49.300;8.880;2023-04-01T15:16:46;9.70;99.90
65036;DHT22;51603;49.300;8.880;2023-04-01T15:19:37;9.60;99.90
65036;DHT22;51603;49.300;8.880;2023-04-01T15:35:50;9.60;99.90
65036;DHT22;51603;49.300;8.880;2023-04-01T15:43:55;9.70;99.90
65036;DHT22;51603;49.300;8.880;2023-04-01T15:46:44;9.70;99.90
65036;DHT22;51603;49.300;8.880;2023-04-01T15:55:13;9.70;99.90
65036;DHT22;51603;49.300;8.880;2023-04-01T16:00:30;9.70;99.90
65036;DHT22;51603;49.300;8.880;2023-04-01T16:22:33;9.80;99.90
65036;DHT22;51603;49.300;8.880;2023-04-01T16:31:04;9.90;99.90
65036;DHT22;51603;49.300;8.880;2023-04-01T16:33:51;9.90;99.90
65036;DHT22;51603;49.300;8.880;2023-04-01T16:36:58;9.80;99.90
65036;DHT22;51603;49.300;8.880;2023-04-01T16:42:32;9.80;99.90
65036;DHT22;51603;49.300;8.880;2023-04-01T16:45:19;9.80;99.90
65036;DHT22;51603;49.300;8.880;2023-04-01T16:47:49;9.80;99.90
65036;DHT22;51603;49.300;8.880;2023-04-01T16:50:28;9.80;99.90
65036;DHT22;51603;49.300;8.880;2023-04-01T16:56:13;9.80;99.90
65036;DHT22;51603;49.300;8.880;2023-04-01T17:04:35;9.80;99.90
65036;DHT22;51603;49.300;8.880;2023-04-01T17:17:48;9.80;99.90
65036;DHT22;51603;49.300;8.880;2023-04-01T17:20:31;9.80;99.90
65036;DHT22;51603;49.300;8.880;2023-04-01T17:23:09;9.80;99.90
65036;DHT22;51603;49.300;8.880;2023-04-01T17:25:53;9.80;99.90
65036;DHT22;51603;49.300;8.880;2023-04-01T17:31:35;9.70;99.90
65036;DHT22;51603;49.300;8.880;2023-04-01T17:39:35;9.70;99.90
65036;DHT22;51603;49.300;8.880;2023-04-01T17:53:43;9.70;99.90
65036;DHT22;51603;49.300;8.880;2023-04-01T17:59:03;9.60;99.90
65036;DHT22;51603;49.300;8.880;2023-04-01T18:09:48;9.50;99.90
65036;DHT22;51603;49.300;8.880;2023-04-01T18:12:34;9.50;99.90
65036;DHT22;51603;49.300;8.880;2023-04-01T18:22:58;9.30;99.90
65036;DHT22;51603;49.300;8.880;2023-04-01T18:25:42;9.30;99.90
65036;DHT22;51603;49.300;8.880;2023-04-01T18:28:16;9.30;99.90
65036;DHT22;51603;49.300;8.880;2023-04-01T18:30:44;9.20;99.90
65036;DHT22;51603;49.300;8.880;2023-04-01T18:36:16;9.20;99.90
65036;DHT22;51603;49.300;8.880;2023-04-01T18:38:52;9.20;99.90
65036;DHT22;51603;49.300;8.880;2023-04-01T18:44:16;9.10;99.90
65036;DHT22;51603;49.300;8.880;2023-04-01T19:00:14;9.10;99.90
65036;DHT22;51603;49.300;8.880;2023-04-01T19:02:46;9.10;99.90
65036;DHT22;51603;49.300;8.880;2023-04-01T19:05:20;9.10;99.90
65036;DHT22;51603;49.300;8.880;2023-04-01T19:07:49;9.00;99.90
65036;DHT22;51603;49.300;8.880;2023-04-01T19:10:23;9.00;99.90
65036;DHT22;51603;49.300;8.880;2023-04-01T19:18:29;9.00;99.90
65036;DHT22;51603;49.300;8.880;2023-04-01T19:21:00;9.00;99.90
65036;DHT22;51603;49.300;8.880;2023-04-01T19:23:50;9.00;99.90
65036;DHT22;51603;49.300;8.880;2023-04-01T19:29:32;8.80;99.90
65036;DHT22;51603;49.300;8.880;2023-04-01T19:40:34;8.70;99.90
65036;DHT22;51603;49.300;8.880;2023-04-01T19:45:41;8.70;99.90
65036;DHT22;51603;49.300;8.880;2023-04-01T19:48:18;8.70;99.90
65036;DHT22;51603;49.300;8.880;2023-04-01T19:50:51;8.70;99.90
65036;DHT22;51603;49.300;8.880;2023-04-01T19:53:28;8.70;99.90
65036;DHT22;51603;49.300;8.880;2023-04-01T19:56:18;8.70;99.90
65036;DHT22;51603;49.300;8.880;2023-04-01T19:59:04;8.70;99.90
65036;DHT22;51603;49.300;8.880;2023-04-01T20:04:23;8.70;99.90
65036;DHT22;51603;49.300;8.880;2023-04-01T20:07:07;8.70;99.90
65036;DHT22;51603;49.300;8.880;2023-04-01T20:12:46;8.70;99.90
65036;DHT22;51603;49.300;8.880;2023-04-01T20:15:31;8.70;99.90
65036;DHT22;51603;49.300;8.880;2023-04-01T20:18:01;8.70;99.90
65036;DHT22;51603;49.300;8.880;2023-04-01T20:20:28;8.70;99.90
65036;DHT22;51603;49.300;8.880;2023-04-01T20:23:26;8.70;99.90
65036;DHT22;51603;49.300;8.880;2023-04-01T20:26:12;8.70;99.90
65036;DHT22;51603;49.300;8.880;2023-04-01T20:29:00;8.70;99.90
65036;DHT22;51603;49.300;8.880;2023-04-01T20:31:33;8.60;99.90
65036;DHT22;51603;49.300;8.880;2023-04-01T20:37:28;8.70;99.90
65036;DHT22;51603;49.300;8.880;2023-04-01T20:47:45;8.60;99.90
65036;DHT22;51603;49.300;8.880;2023-04-01T20:53:40;8.60;99.90
65036;DHT22;51603;49.300;8.880;2023-04-01T21:04:16;8.60;99.90
65036;DHT22;51603;49.300;8.880;2023-04-01T21:15:37;8.50;99.90
65036;DHT22;51603;49.300;8.880;2023-04-01T21:21:27;8.50;99.90
65036;DHT22;51603;49.300;8.880;2023-04-01T21:27:02;8.50;99.90
65036;DHT22;51603;49.300;8.880;2023-04-01T21:32:38;8.50;99.90
65036;DHT22;51603;49.300;8.880;2023-04-01T21:38:23;8.50;99.90
65036;DHT22;51603;49.300;8.880;2023-04-01T21:50:14;8.50;99.90
65036;DHT22;51603;49.300;8.880;2023-04-01T22:07:15;8.60;99.90
65036;DHT22;51603;49.300;8.880;2023-04-01T22:09:45;8.60;99.90
65036;DHT22;51603;49.300;8.880;2023-04-01T22:12:19;8.60;99.90
65036;DHT22;51603;49.300;8.880;2023-04-01T22:20:04;8.50;99.90
65036;DHT22;51603;49.300;8.880;2023-04-01T22:22:59;8.50;99.90
65036;DHT22;51603;49.300;8.880;2023-04-01T22:28:05;8.50;99.90
65036;DHT22;51603;49.300;8.880;2023-04-01T22:30:53;8.50;99.90
65036;DHT22;51603;49.300;8.880;2023-04-01T22:33:32;8.50;99.90
65036;DHT22;51603;49.300;8.880;2023-04-01T22:36:24;8.40;99.90
65036;DHT22;51603;49.300;8.880;2023-04-01T22:38:58;8.40;99.90
65036;DHT22;51603;49.300;8.880;2023-04-01T22:41:43;8.40;99.90
65036;DHT22;51603;49.300;8.880;2023-04-01T22:47:08;8.40;99.90
65036;DHT22;51603;49.300;8.880;2023-04-01T22:49:47;8.40;99.90
65036;DHT22;51603;49.300;8.880;2023-04-01T22:54:42;8.40;99.90
65036;DHT22;51603;49.300;8.880;2023-04-01T22:57:13;8.40;99.90
65036;DHT22;51603;49.300;8.880;2023-04-01T22:59:50;8.40;99.90
65036;DHT22;51603;49.300;8.880;2023-04-01T23:02:28;8.40;99.90
65036;DHT22;51603;49.300;8.880;2023-04-01T23:05:00;8.30;99.90
65036;DHT22;51603;49.300;8.880;2023-04-01T23:13:03;8.40;99.90
65036;DHT22;51603;49.300;8.880;2023-04-01T23:15:29;8.30;99.90
65036;DHT22;51603;49.300;8.880;2023-04-01T23:18:15;8.30;99.90
65036;DHT22;51603;49.300;8.880;2023-04-01T23:20:58;8.30;99.90
65036;DHT22;51603;49.300;8.880;2023-04-01T23:30:52;8.30;99.90
65036;DHT22;51603;49.300;8.880;2023-04-01T23:33:29;8.30;99.90
65036;DHT22;51603;49.300;8.880;2023-04-01T23:35:56;8.20;99.90
65036;DHT22;51603;49.300;8.880;2023-04-01T23:38:32;8.20;99.90
65036;DHT22;51603;49.300;8.880;2023-04-01T23:40:58;8.20;99.90
65036;DHT22;51603;49.300;8.880;2023-04-01T23:45:53;8.20;99.90
65036;DHT22;51603;49.300;8.880;2023-04-01T23:48:19;8.20;99.90
65036;DHT22;51603;49.300;8.880;2023-04-01T23:50:48;8.20;99.90
65036;DHT22;51603;49.300;8.880;2023-04-01T23:53:20;8.20;99.90
65036;DHT22;51603;49.300;8.880;2023-04-01T23:55:46;8.20;99.90
65036;DHT22;51603;49.300;8.880;2023-04-01T23:58:26;8.20;99.90
